createdAt,value
2022-11-16T00:01:11.315Z,11.50
2022-11-16T00:09:27.328Z,11.60
2022-11-16T00:17:32.708Z,11.50
2022-11-16T00:25:40.542Z,11.40
2022-11-16T00:33:45.967Z,11.40
2022-11-16T00:41:54.232Z,11.30
2022-11-16T00:49:59.783Z,11.00
2022-11-16T00:58:08.064Z,10.60
2022-11-16T01:06:15.832Z,10.50
2022-11-16T01:14:23.873Z,10.50
2022-11-16T01:22:29.256Z,10.60
2022-11-16T01:30:37.328Z,10.80
2022-11-16T01:38:48.617Z,11.00
2022-11-16T01:46:59.857Z,10.70
2022-11-16T01:55:06.377Z,10.80
2022-11-16T02:03:28.994Z,10.90
2022-11-16T02:11:57.326Z,10.80
2022-11-16T02:20:27.450Z,10.90
2022-11-16T02:28:43.907Z,10.30
2022-11-16T02:36:56.297Z,10.20
2022-11-16T02:45:03.667Z,10.50
2022-11-16T02:53:11.856Z,10.90
2022-11-16T03:01:22.348Z,10.90
2022-11-16T03:09:33.085Z,10.90
2022-11-16T03:17:43.375Z,11.10
2022-11-16T03:25:54.678Z,11.00
2022-11-16T03:34:03.713Z,11.00
2022-11-16T03:42:16.776Z,11.30
2022-11-16T03:50:22.465Z,11.50
2022-11-16T03:58:32.040Z,11.30
2022-11-16T04:06:50.389Z,11.20
2022-11-16T04:15:11.149Z,11.00
2022-11-16T04:23:31.115Z,11.00
2022-11-16T04:31:51.522Z,10.90
2022-11-16T04:39:57.038Z,10.70
2022-11-16T04:48:05.847Z,9.80
2022-11-16T04:56:13.455Z,9.70
2022-11-16T05:04:22.367Z,10.20
2022-11-16T05:12:29.804Z,10.30
2022-11-16T05:20:53.542Z,9.90
2022-11-16T05:28:59.248Z,9.90
2022-11-16T05:37:07.727Z,9.50
2022-11-16T05:45:18.426Z,9.10
2022-11-16T05:53:30.048Z,9.60
2022-11-16T06:01:37.068Z,9.80
2022-11-16T06:09:45.697Z,9.70
2022-11-16T06:17:57.552Z,9.60
2022-11-16T06:26:07.052Z,9.70
2022-11-16T06:34:20.696Z,9.80
2022-11-16T06:42:29.174Z,10.10
2022-11-16T06:50:34.814Z,10.60
2022-11-16T06:58:43.236Z,11.10
2022-11-16T07:06:50.483Z,11.70
2022-11-16T07:14:59.476Z,12.20
2022-11-16T07:23:12.875Z,12.50
2022-11-16T07:31:25.810Z,12.90
2022-11-16T07:39:51.104Z,13.20
2022-11-16T07:47:59.168Z,12.90
2022-11-16T07:56:24.830Z,12.40
2022-11-16T08:04:33.049Z,12.40
2022-11-16T08:12:38.690Z,12.70
2022-11-16T08:20:47.625Z,12.70
2022-11-16T08:28:54.270Z,13.00
2022-11-16T08:37:07.052Z,17.10
2022-11-16T08:45:18.966Z,17.00
2022-11-16T08:53:27.108Z,15.50
2022-11-16T09:01:34.345Z,14.50
2022-11-16T09:09:42.319Z,14.10
2022-11-16T09:17:47.687Z,13.40
2022-11-16T09:25:56.133Z,12.60
2022-11-16T09:34:02.985Z,12.70
2022-11-16T09:42:34.007Z,15.20
2022-11-16T09:50:48.937Z,16.70
2022-11-16T09:59:03.329Z,15.40
2022-11-16T10:07:15.220Z,14.60
2022-11-16T10:15:37.926Z,14.50
2022-11-16T10:23:56.650Z,14.10
2022-11-16T10:32:17.448Z,13.90
2022-11-16T10:40:26.941Z,14.40
2022-11-16T10:48:42.708Z,14.40
2022-11-16T10:56:51.366Z,14.80
2022-11-16T11:05:10.076Z,15.60
2022-11-16T11:13:29.484Z,16.00
2022-11-16T11:21:37.945Z,16.40
2022-11-16T11:29:46.042Z,16.00
2022-11-16T11:37:55.711Z,16.30
2022-11-16T11:46:09.223Z,16.80
2022-11-16T11:54:24.549Z,17.00
2022-11-16T12:02:43.437Z,17.30
2022-11-16T12:10:55.132Z,17.10
2022-11-16T12:19:38.113Z,16.70
2022-11-16T12:27:52.726Z,16.50
2022-11-16T12:36:05.123Z,16.50
2022-11-16T12:44:15.247Z,16.60
2022-11-16T12:52:39.573Z,16.30
2022-11-16T13:00:56.985Z,16.30
2022-11-16T13:09:09.029Z,16.40
2022-11-16T13:17:23.118Z,16.20
2022-11-16T13:25:35.387Z,16.30
2022-11-16T13:33:51.225Z,16.20
2022-11-16T13:42:10.185Z,16.30
2022-11-16T13:50:24.051Z,16.50
2022-11-16T13:58:31.706Z,16.40
2022-11-16T14:07:01.288Z,16.30
2022-11-16T14:15:16.260Z,15.40
2022-11-16T14:23:33.966Z,15.60
2022-11-16T14:31:51.414Z,15.50
2022-11-16T14:40:05.165Z,15.30
2022-11-16T14:48:18.755Z,15.30
2022-11-16T14:56:26.785Z,15.30
2022-11-16T15:04:33.805Z,15.40
2022-11-16T15:12:51.437Z,15.40
2022-11-16T15:20:56.858Z,15.30
2022-11-16T15:29:04.906Z,15.30
2022-11-16T15:37:15.572Z,15.30
2022-11-16T15:45:26.754Z,15.30
2022-11-16T15:53:40.768Z,15.20
2022-11-16T16:01:48.900Z,15.30
2022-11-16T16:10:15.693Z,15.40
2022-11-16T16:18:40.783Z,15.30
2022-11-16T16:26:46.123Z,15.00
2022-11-16T16:34:54.406Z,14.90
2022-11-16T16:43:00.793Z,14.60
2022-11-16T16:51:09.024Z,14.40
2022-11-16T16:59:17.083Z,14.30
2022-11-16T17:07:25.293Z,14.30
2022-11-16T17:15:30.915Z,14.10
2022-11-16T17:23:39.505Z,13.90
2022-11-16T17:31:45.114Z,14.10
2022-11-16T17:39:53.151Z,14.20
2022-11-16T17:47:58.554Z,14.30
2022-11-16T17:56:07.294Z,14.50
2022-11-16T18:04:13.138Z,14.60
2022-11-16T18:12:21.113Z,14.40
2022-11-16T18:20:27.869Z,14.00
2022-11-16T18:28:35.908Z,14.10
2022-11-16T18:36:41.379Z,13.60
2022-11-16T18:44:51.494Z,13.40
2022-11-16T18:52:57.092Z,13.40
2022-11-16T19:01:08.205Z,13.40
2022-11-16T19:09:15.675Z,13.40
2022-11-16T19:17:25.079Z,13.50
2022-11-16T19:25:30.663Z,13.50
2022-11-16T19:33:39.287Z,13.60
2022-11-16T19:41:45.130Z,13.50
2022-11-16T19:49:53.252Z,13.60
2022-11-16T19:57:58.705Z,13.50
2022-11-16T20:06:12.363Z,13.50
2022-11-16T20:14:17.793Z,13.50
2022-11-16T20:22:25.825Z,13.40
2022-11-16T20:30:31.149Z,13.90
2022-11-16T20:38:41.122Z,14.10
2022-11-16T20:46:46.782Z,14.10
2022-11-16T20:54:54.937Z,14.00
2022-11-16T21:03:00.360Z,13.40
2022-11-16T21:11:13.139Z,13.40
2022-11-16T21:19:18.554Z,13.40
2022-11-16T21:27:26.443Z,13.20
2022-11-16T21:35:31.648Z,13.30
2022-11-16T21:43:40.735Z,13.50
2022-11-16T21:51:46.146Z,13.80
2022-11-16T21:59:54.073Z,13.60
2022-11-16T22:08:00.120Z,13.80
2022-11-16T22:16:11.822Z,13.80
2022-11-16T22:24:17.116Z,13.90
2022-11-16T22:32:28.250Z,13.90
2022-11-16T22:40:36.349Z,13.70
2022-11-16T22:48:45.154Z,13.00
2022-11-16T22:56:50.711Z,13.30
2022-11-16T23:04:58.574Z,13.50
2022-11-16T23:13:16.246Z,13.70
2022-11-16T23:21:51.284Z,13.70
2022-11-16T23:29:56.643Z,13.90
2022-11-16T23:38:06.831Z,14.10
2022-11-16T23:46:14.440Z,14.00
2022-11-16T23:54:25.175Z,14.10
